Time;durP1;ratioP1;P1;durP2;ratioP2;P2;SDS_P1;SDS_P2;PMS_P1;PMS_P2;Temp;Humidity;BMP_temperature;BMP_pressure;BME280_temperature;BME280_humidity;BME280_pressure;Samples;Min_cycle;Max_cycle;Signal;HPM_P1;HPM_P2
2023/01/25 00:01:28;;;;;;;2.58;2.00;;;;;;;;;;4975529;28;20034;-78
2023/01/25 00:03:55;;;;;;;3.20;1.83;;;;;;;;;;4978379;28;20030;-76
2023/01/25 00:06:21;;;;;;;4.75;2.20;;;;;;;;;;4976086;28;20049;-77
2023/01/25 00:08:50;;;;;;;2.50;2.00;;;;;;;;;;4977836;28;20137;-76
2023/01/25 00:11:18;;;;;;;2.30;1.10;;;;;;;;;;4976348;28;20022;-75
2023/01/25 00:13:45;;;;;;;2.03;1.10;;;;;;;;;;4978388;28;20037;-76
2023/01/25 00:16:11;;;;;;;1.60;0.82;;;;;;;;;;4970633;28;20109;-78
2023/01/25 00:18:37;;;;;;;1.83;1.02;;;;;;;;;;4978661;28;20030;-76
2023/01/25 00:21:20;;;;;;;1.40;1.00;;;;;;;;;;4982125;28;20034;-77
2023/01/25 00:23:46;;;;;;;3.67;1.10;;;;;;;;;;4972772;28;20071;-76
2023/01/25 00:26:13;;;;;;;2.13;0.93;;;;;;;;;;4981315;28;20075;-76
2023/01/25 00:28:39;;;;;;;1.58;1.00;;;;;;;;;;4973676;28;20062;-76
2023/01/25 00:31:07;;;;;;;1.58;1.05;;;;;;;;;;4981764;28;20022;-75
2023/01/25 00:33:53;;;;;;;2.42;1.20;;;;;;;;;;4973770;28;20037;-76
2023/01/25 00:36:22;;;;;;;2.88;1.38;;;;;;;;;;4948064;28;20133;-77
2023/01/25 00:38:48;;;;;;;1.80;1.30;;;;;;;;;;4979780;28;20114;-78
2023/01/25 00:41:14;;;;;;;2.85;1.40;;;;;;;;;;4976241;28;20379;-77
2023/01/25 00:43:41;;;;;;;1.38;1.00;;;;;;;;;;4981219;28;20026;-77
2023/01/25 00:46:08;;;;;;;2.67;1.20;;;;;;;;;;4974810;28;20124;-78
2023/01/25 00:48:35;;;;;;;1.70;1.10;;;;;;;;;;4977701;28;20558;-76
2023/01/25 00:51:01;;;;;;;3.15;1.20;;;;;;;;;;4980071;28;20022;-77
2023/01/25 00:53:27;;;;;;;1.50;1.00;;;;;;;;;;4982280;28;20104;-77
2023/01/25 00:55:54;;;;;;;1.80;1.08;;;;;;;;;;4984027;28;20030;-77
2023/01/25 00:58:20;;;;;;;2.30;1.10;;;;;;;;;;4978027;28;20113;-77
2023/01/25 01:00:46;;;;;;;2.10;1.13;;;;;;;;;;4976454;28;20415;-77
2023/01/25 01:03:12;;;;;;;2.65;1.17;;;;;;;;;;4977542;28;20570;-76
2023/01/25 01:05:38;;;;;;;1.60;1.10;;;;;;;;;;4974825;28;20046;-76
2023/01/25 01:08:04;;;;;;;2.17;1.00;;;;;;;;;;4976740;28;20025;-76
2023/01/25 01:10:31;;;;;;;1.92;1.10;;;;;;;;;;4975797;28;20027;-77
2023/01/25 01:12:57;;;;;;;2.80;1.13;;;;;;;;;;4980430;28;20891;-77
2023/01/25 01:15:23;;;;;;;1.52;1.00;;;;;;;;;;4981478;28;20225;-77
2023/01/25 01:17:49;;;;;;;1.77;1.08;;;;;;;;;;4976136;28;20038;-76
2023/01/25 01:20:15;;;;;;;1.90;1.20;;;;;;;;;;4976379;28;20018;-77
2023/01/25 01:22:41;;;;;;;2.20;1.38;;;;;;;;;;4978828;28;20026;-77
2023/01/25 01:25:08;;;;;;;3.75;1.50;;;;;;;;;;4976752;28;20668;-76
2023/01/25 01:27:34;;;;;;;1.88;1.20;;;;;;;;;;4975561;28;20498;-76
2023/01/25 01:30:00;;;;;;;1.48;1.05;;;;;;;;;;4976096;28;20026;-75
2023/01/25 01:32:26;;;;;;;1.95;1.42;;;;;;;;;;4971633;28;20033;-77
2023/01/25 01:34:52;;;;;;;2.28;1.63;;;;;;;;;;4974579;28;20077;-76
2023/01/25 01:37:19;;;;;;;1.98;1.30;;;;;;;;;;4976068;28;20038;-78
2023/01/25 01:39:45;;;;;;;2.90;1.45;;;;;;;;;;4976555;28;20033;-77
2023/01/25 01:42:11;;;;;;;1.60;1.30;;;;;;;;;;4977495;28;20585;-77
2023/01/25 01:44:55;;;;;;;1.90;1.20;;;;;;;;;;4972572;28;20588;-77
2023/01/25 01:47:27;;;;;;;1.98;1.00;;;;;;;;;;4975494;28;20026;-74
2023/01/25 01:49:55;;;;;;;2.17;1.20;;;;;;;;;;4978344;28;20028;-73
2023/01/25 01:52:23;;;;;;;2.25;1.17;;;;;;;;;;4977705;28;20097;-76
2023/01/25 01:54:53;;;;;;;3.17;1.52;;;;;;;;;;4975155;28;20634;-75
2023/01/25 01:57:21;;;;;;;1.85;1.20;;;;;;;;;;4975422;28;20040;-74
2023/01/25 01:59:50;;;;;;;1.73;1.25;;;;;;;;;;4976553;28;20031;-73
2023/01/25 02:02:16;;;;;;;2.72;1.70;;;;;;;;;;4976994;28;20053;-76
2023/01/25 02:04:45;;;;;;;2.40;1.33;;;;;;;;;;4978546;28;20031;-76
2023/01/25 02:07:20;;;;;;;2.30;1.60;;;;;;;;;;4974425;28;20037;-76
2023/01/25 02:09:46;;;;;;;2.85;1.23;;;;;;;;;;4976024;28;20541;-75
2023/01/25 02:12:14;;;;;;;2.30;1.40;;;;;;;;;;4980500;28;20078;-76
2023/01/25 02:14:45;;;;;;;2.95;1.40;;;;;;;;;;4975585;28;20023;-75
2023/01/25 02:17:12;;;;;;;2.67;1.33;;;;;;;;;;4972264;28;20042;-73
2023/01/25 02:19:43;;;;;;;1.85;1.20;;;;;;;;;;4975856;28;20149;-76
2023/01/25 02:22:12;;;;;;;2.72;1.45;;;;;;;;;;4981178;28;20088;-77
2023/01/25 02:24:39;;;;;;;2.17;1.45;;;;;;;;;;4973672;28;20038;-75
2023/01/25 02:27:06;;;;;;;2.97;1.55;;;;;;;;;;4978755;28;20034;-76
2023/01/25 02:29:32;;;;;;;4.35;1.58;;;;;;;;;;4974363;28;20019;-75
2023/01/25 02:32:07;;;;;;;2.75;1.38;;;;;;;;;;4971958;28;20101;-77
2023/01/25 02:34:35;;;;;;;2.45;1.25;;;;;;;;;;4974890;28;20033;-77
2023/01/25 02:37:01;;;;;;;1.67;1.17;;;;;;;;;;4978417;28;20121;-75
2023/01/25 02:39:28;;;;;;;1.90;1.30;;;;;;;;;;4976190;28;20773;-76
2023/01/25 02:41:54;;;;;;;2.40;1.50;;;;;;;;;;4974391;28;20399;-74
2023/01/25 02:44:23;;;;;;;2.63;1.10;;;;;;;;;;4976774;28;20390;-73
2023/01/25 02:46:49;;;;;;;2.17;1.42;;;;;;;;;;4974099;28;20030;-75
2023/01/25 02:49:16;;;;;;;1.67;1.20;;;;;;;;;;4974850;28;20057;-75
2023/01/25 02:51:43;;;;;;;2.97;1.20;;;;;;;;;;4979989;28;20130;-75
2023/01/25 02:54:11;;;;;;;1.90;1.10;;;;;;;;;;4983116;28;20036;-75
2023/01/25 02:56:39;;;;;;;1.35;1.08;;;;;;;;;;4979341;28;20041;-74
2023/01/25 02:59:05;;;;;;;1.40;1.00;;;;;;;;;;4978965;28;20577;-74
2023/01/25 03:01:35;;;;;;;1.83;0.90;;;;;;;;;;4981227;28;20027;-74
2023/01/25 03:04:01;;;;;;;0.95;0.80;;;;;;;;;;4977869;28;20507;-74
2023/01/25 03:06:27;;;;;;;1.02;0.75;;;;;;;;;;4978918;28;20053;-73
2023/01/25 03:08:53;;;;;;;1.13;0.70;;;;;;;;;;4978160;28;20050;-75
2023/01/25 03:11:20;;;;;;;1.13;0.90;;;;;;;;;;4978666;28;20368;-73
2023/01/25 03:13:46;;;;;;;0.75;0.60;;;;;;;;;;4978741;28;20031;-73
2023/01/25 03:16:13;;;;;;;1.33;0.82;;;;;;;;;;4977284;28;20219;-75
2023/01/25 03:18:40;;;;;;;1.05;0.82;;;;;;;;;;4981380;28;20057;-74
2023/01/25 03:21:13;;;;;;;1.17;0.75;;;;;;;;;;4981874;28;20049;-73
2023/01/25 03:23:40;;;;;;;1.60;0.90;;;;;;;;;;4983133;28;20026;-74
2023/01/25 03:26:07;;;;;;;1.00;0.70;;;;;;;;;;4974617;28;20503;-72
2023/01/25 03:28:33;;;;;;;1.52;0.80;;;;;;;;;;4979759;28;20022;-73
2023/01/25 03:31:00;;;;;;;1.75;0.77;;;;;;;;;;4980800;28;20057;-75
2023/01/25 03:33:26;;;;;;;2.30;1.10;;;;;;;;;;4978353;28;20037;-74
2023/01/25 03:35:52;;;;;;;1.65;0.85;;;;;;;;;;4976852;28;20043;-73
2023/01/25 03:38:19;;;;;;;1.60;1.10;;;;;;;;;;4980070;28;20049;-75
2023/01/25 03:40:46;;;;;;;1.50;1.02;;;;;;;;;;4977185;28;20537;-73
2023/01/25 03:43:12;;;;;;;1.33;0.93;;;;;;;;;;4980086;28;20050;-74
2023/01/25 03:45:38;;;;;;;1.35;0.80;;;;;;;;;;4985134;28;20068;-75
2023/01/25 03:48:04;;;;;;;1.85;0.90;;;;;;;;;;4978452;28;20038;-73
2023/01/25 03:50:31;;;;;;;1.73;0.90;;;;;;;;;;4979547;28;20022;-75
2023/01/25 03:53:05;;;;;;;1.15;0.80;;;;;;;;;;4982036;28;20530;-73
2023/01/25 03:55:32;;;;;;;1.35;0.90;;;;;;;;;;4979823;28;20010;-73
2023/01/25 03:57:58;;;;;;;1.15;1.00;;;;;;;;;;4977488;28;20562;-74
2023/01/25 04:00:24;;;;;;;2.63;0.80;;;;;;;;;;4980225;28;20158;-74
2023/01/25 04:02:51;;;;;;;1.75;1.00;;;;;;;;;;4980150;28;20034;-74
2023/01/25 04:05:17;;;;;;;1.02;0.70;;;;;;;;;;4978450;28;20034;-74
2023/01/25 04:07:43;;;;;;;1.70;0.80;;;;;;;;;;4980270;28;20032;-75
2023/01/25 04:10:10;;;;;;;2.40;1.20;;;;;;;;;;4980980;28;20026;-74
2023/01/25 04:12:36;;;;;;;1.60;1.10;;;;;;;;;;4980475;28;20080;-74
2023/01/25 04:15:02;;;;;;;1.35;0.90;;;;;;;;;;4981991;28;20022;-74
2023/01/25 04:17:28;;;;;;;2.95;1.85;;;;;;;;;;4977608;28;20068;-73
2023/01/25 04:19:54;;;;;;;1.60;0.80;;;;;;;;;;4974712;28;20026;-73
2023/01/25 04:22:20;;;;;;;1.02;0.80;;;;;;;;;;4977943;28;20035;-74
2023/01/25 04:24:46;;;;;;;0.98;0.80;;;;;;;;;;4976134;28;20040;-75
2023/01/25 04:27:13;;;;;;;1.98;0.88;;;;;;;;;;4976185;28;20031;-73
2023/01/25 04:29:39;;;;;;;1.13;0.90;;;;;;;;;;4973166;28;20072;-75
2023/01/25 04:32:05;;;;;;;4.45;1.60;;;;;;;;;;4974389;28;20044;-74
2023/01/25 04:34:31;;;;;;;3.60;2.50;;;;;;;;;;4976603;28;20171;-75
2023/01/25 04:36:57;;;;;;;4.57;2.45;;;;;;;;;;4978335;28;20573;-74
2023/01/25 04:39:23;;;;;;;4.47;2.63;;;;;;;;;;4978065;28;20688;-74
2023/01/25 04:41:50;;;;;;;3.28;2.10;;;;;;;;;;4966624;28;20050;-73
2023/01/25 04:44:16;;;;;;;3.80;2.00;;;;;;;;;;4978767;28;20030;-73
2023/01/25 04:46:42;;;;;;;2.17;1.60;;;;;;;;;;4974863;28;20045;-73
2023/01/25 04:49:08;;;;;;;2.17;1.38;;;;;;;;;;4973908;28;20088;-75
2023/01/25 04:51:34;;;;;;;2.25;0.80;;;;;;;;;;4971292;28;20344;-73
2023/01/25 04:54:00;;;;;;;1.02;0.80;;;;;;;;;;4970875;28;20041;-74
2023/01/25 04:56:26;;;;;;;0.70;0.60;;;;;;;;;;4972991;28;20034;-75
2023/01/25 04:58:52;;;;;;;1.40;0.82;;;;;;;;;;4973994;28;20030;-74
2023/01/25 05:01:19;;;;;;;2.13;0.70;;;;;;;;;;4976493;28;20035;-74
2023/01/25 05:03:45;;;;;;;1.15;0.70;;;;;;;;;;4972325;28;20035;-73
2023/01/25 05:06:11;;;;;;;0.85;0.40;;;;;;;;;;4973570;28;20058;-73
2023/01/25 05:08:37;;;;;;;0.60;0.60;;;;;;;;;;4977349;28;20530;-75
2023/01/25 05:11:03;;;;;;;0.80;0.50;;;;;;;;;;4974411;28;20031;-73
2023/01/25 05:13:29;;;;;;;0.70;0.60;;;;;;;;;;4973235;28;20602;-74
2023/01/25 05:15:56;;;;;;;0.38;0.38;;;;;;;;;;4974672;28;20030;-74
2023/01/25 05:18:23;;;;;;;0.57;0.50;;;;;;;;;;4971472;28;20130;-73
2023/01/25 05:20:54;;;;;;;0.35;0.30;;;;;;;;;;4977610;28;20028;-74
2023/01/25 05:23:20;;;;;;;1.20;0.50;;;;;;;;;;4968527;28;20042;-72
2023/01/25 05:28:31;;;;;;;1.42;0.40;;;;;;;;;;4972190;28;20069;-75
2023/01/25 05:30:58;;;;;;;1.70;1.20;;;;;;;;;;4970582;28;20716;-74
2023/01/25 05:33:24;;;;;;;2.33;1.52;;;;;;;;;;4975892;28;20347;-75
2023/01/25 05:35:50;;;;;;;3.15;2.47;;;;;;;;;;4971914;28;20655;-72
2023/01/25 05:38:16;;;;;;;3.35;2.20;;;;;;;;;;4974953;28;20656;-74
2023/01/25 05:40:42;;;;;;;3.75;2.30;;;;;;;;;;4972178;28;20097;-73
2023/01/25 05:43:09;;;;;;;2.92;1.60;;;;;;;;;;4974721;28;20030;-74
2023/01/25 05:45:35;;;;;;;1.90;1.42;;;;;;;;;;4974963;28;20026;-72
2023/01/25 05:48:01;;;;;;;1.35;0.82;;;;;;;;;;4975617;28;20038;-74
2023/01/25 05:50:27;;;;;;;0.82;0.73;;;;;;;;;;4974221;28;20023;-74
2023/01/25 05:52:53;;;;;;;1.65;1.10;;;;;;;;;;4978507;28;20031;-72
2023/01/25 05:55:19;;;;;;;1.52;0.80;;;;;;;;;;4975154;28;20018;-75
2023/01/25 05:57:46;;;;;;;0.40;0.40;;;;;;;;;;4976431;28;20026;-74
2023/01/25 06:00:12;;;;;;;0.55;0.45;;;;;;;;;;4977652;28;20026;-74
2023/01/25 06:02:38;;;;;;;0.50;0.30;;;;;;;;;;4977097;28;20037;-72
2023/01/25 06:05:04;;;;;;;0.40;0.40;;;;;;;;;;4980912;28;20232;-74
2023/01/25 06:07:35;;;;;;;0.55;0.40;;;;;;;;;;4971873;28;20034;-73
2023/01/25 06:10:01;;;;;;;0.32;0.30;;;;;;;;;;4971997;28;20097;-74
2023/01/25 06:12:27;;;;;;;0.30;0.30;;;;;;;;;;4977892;28;20034;-75
2023/01/25 06:14:53;;;;;;;1.08;0.32;;;;;;;;;;4972746;28;20718;-74
2023/01/25 06:17:20;;;;;;;0.63;0.40;;;;;;;;;;4974660;28;20434;-74
2023/01/25 06:19:46;;;;;;;0.47;0.30;;;;;;;;;;4974708;28;20497;-73
2023/01/25 06:22:12;;;;;;;0.30;0.20;;;;;;;;;;4975860;28;20545;-75
2023/01/25 06:24:38;;;;;;;0.70;0.40;;;;;;;;;;4972610;28;20027;-77
2023/01/25 06:27:04;;;;;;;0.68;0.30;;;;;;;;;;4973077;28;20023;-73
2023/01/25 06:29:30;;;;;;;0.40;0.30;;;;;;;;;;4976065;28;20026;-74
2023/01/25 06:31:57;;;;;;;2.85;0.47;;;;;;;;;;4971275;28;20029;-74
2023/01/25 06:34:23;;;;;;;0.88;0.60;;;;;;;;;;4977961;28;20033;-75
2023/01/25 06:36:50;;;;;;;2.22;1.08;;;;;;;;;;4976188;28;20050;-75
2023/01/25 06:39:16;;;;;;;2.60;1.38;;;;;;;;;;4976853;28;20443;-75
2023/01/25 06:41:42;;;;;;;3.35;1.80;;;;;;;;;;4975189;28;20026;-74
2023/01/25 06:44:08;;;;;;;5.35;2.60;;;;;;;;;;4977189;28;20030;-77
2023/01/25 06:46:34;;;;;;;5.63;1.83;;;;;;;;;;4975116;28;20029;-75
2023/01/25 06:49:01;;;;;;;4.40;2.25;;;;;;;;;;4980393;28;20026;-77
2023/01/25 06:51:27;;;;;;;3.00;1.58;;;;;;;;;;4975123;28;20031;-77
2023/01/25 06:53:53;;;;;;;4.10;1.67;;;;;;;;;;4976954;28;20027;-77
2023/01/25 06:56:20;;;;;;;1.90;1.23;;;;;;;;;;4974128;28;20031;-77
2023/01/25 06:58:47;;;;;;;9.10;1.48;;;;;;;;;;4975084;28;20065;-78
2023/01/25 07:01:15;;;;;;;2.42;1.20;;;;;;;;;;4973587;28;20833;-75
2023/01/25 07:03:41;;;;;;;3.88;1.50;;;;;;;;;;4977151;28;20045;-77
2023/01/25 07:06:09;;;;;;;1.83;1.17;;;;;;;;;;4974180;28;20178;-77
2023/01/25 07:08:35;;;;;;;2.03;1.33;;;;;;;;;;4968943;28;20027;-77
2023/01/25 07:11:03;;;;;;;1.90;1.00;;;;;;;;;;4976757;28;20025;-78
2023/01/25 07:13:30;;;;;;;5.88;1.17;;;;;;;;;;4972009;28;20030;-78
2023/01/25 07:16:00;;;;;;;2.15;1.13;;;;;;;;;;4969486;28;20053;-76
2023/01/25 07:18:28;;;;;;;6.55;1.60;;;;;;;;;;4975100;28;20034;-76
2023/01/25 07:20:55;;;;;;;18.17;8.88;;;;;;;;;;4976688;28;20023;-75
2023/01/25 07:23:21;;;;;;;38.88;17.70;;;;;;;;;;4975438;28;20026;-77
2023/01/25 07:25:48;;;;;;;54.80;27.23;;;;;;;;;;4977461;28;20042;-75
2023/01/25 07:28:15;;;;;;;47.45;24.95;;;;;;;;;;4972362;28;20026;-76
2023/01/25 07:30:41;;;;;;;43.22;22.88;;;;;;;;;;4975645;28;20550;-76
2023/01/25 07:33:08;;;;;;;41.30;22.48;;;;;;;;;;4980242;28;20462;-76
2023/01/25 07:35:34;;;;;;;35.72;18.45;;;;;;;;;;4977106;28;20031;-76
2023/01/25 07:38:00;;;;;;;30.25;15.60;;;;;;;;;;4980851;28;20411;-76
2023/01/25 07:40:26;;;;;;;28.92;14.27;;;;;;;;;;4978554;28;20054;-76
2023/01/25 07:42:53;;;;;;;20.75;9.90;;;;;;;;;;4979913;28;20114;-75
2023/01/25 07:45:19;;;;;;;11.35;6.00;;;;;;;;;;4990066;28;20027;-76
2023/01/25 07:47:46;;;;;;;11.25;5.70;;;;;;;;;;4980841;28;20114;-76
2023/01/25 07:50:12;;;;;;;12.38;5.57;;;;;;;;;;4977872;28;20019;-76
2023/01/25 07:52:38;;;;;;;12.27;4.30;;;;;;;;;;4979469;28;20364;-76
2023/01/25 07:55:05;;;;;;;9.60;3.90;;;;;;;;;;4981686;28;20495;-76
2023/01/25 07:57:31;;;;;;;10.68;3.30;;;;;;;;;;4978982;28;20044;-75
2023/01/25 07:59:57;;;;;;;4.88;2.80;;;;;;;;;;4980597;28;20106;-76
2023/01/25 08:02:23;;;;;;;5.38;2.60;;;;;;;;;;4980440;28;20105;-76
2023/01/25 08:04:50;;;;;;;5.47;2.00;;;;;;;;;;4978255;28;20048;-75
2023/01/25 08:07:16;;;;;;;3.97;1.88;;;;;;;;;;4982783;28;20037;-76
2023/01/25 08:09:42;;;;;;;4.68;1.90;;;;;;;;;;4977981;28;20727;-76
2023/01/25 08:12:09;;;;;;;2.67;1.60;;;;;;;;;;4981622;28;20073;-76
2023/01/25 08:14:37;;;;;;;4.65;2.45;;;;;;;;;;4975270;28;20030;-77
2023/01/25 08:17:03;;;;;;;7.15;2.92;;;;;;;;;;4979300;28;20496;-77
2023/01/25 08:19:29;;;;;;;6.65;2.90;;;;;;;;;;4979989;28;20110;-77
2023/01/25 08:21:56;;;;;;;6.22;3.40;;;;;;;;;;4978660;28;20029;-77
2023/01/25 08:24:22;;;;;;;6.88;3.65;;;;;;;;;;4976743;28;20026;-75
2023/01/25 08:26:48;;;;;;;11.05;5.22;;;;;;;;;;4974165;28;20041;-77
2023/01/25 08:29:14;;;;;;;28.73;16.67;;;;;;;;;;4976998;28;20026;-77
2023/01/25 08:31:44;;;;;;;30.33;17.02;;;;;;;;;;4980273;28;20026;-79
2023/01/25 08:34:10;;;;;;;29.48;17.60;;;;;;;;;;4974076;28;20025;-78
2023/01/25 08:36:36;;;;;;;92.15;46.00;;;;;;;;;;4977535;28;20026;-77
2023/01/25 08:39:05;;;;;;;51.65;28.85;;;;;;;;;;4973715;28;20018;-79
2023/01/25 08:41:31;;;;;;;33.53;19.63;;;;;;;;;;4975531;28;20030;-79
2023/01/25 08:43:58;;;;;;;25.85;15.63;;;;;;;;;;4976256;28;20026;-76
2023/01/25 08:46:25;;;;;;;22.75;12.55;;;;;;;;;;4976645;28;20015;-79
2023/01/25 08:48:55;;;;;;;17.05;9.63;;;;;;;;;;4977797;28;20134;-78
2023/01/25 08:51:21;;;;;;;15.45;8.40;;;;;;;;;;4979089;28;20110;-79
2023/01/25 08:53:47;;;;;;;9.35;6.07;;;;;;;;;;4980626;28;20018;-80
2023/01/25 08:56:15;;;;;;;9.43;5.93;;;;;;;;;;4980405;28;20024;-81
2023/01/25 08:58:42;;;;;;;8.02;4.68;;;;;;;;;;4975440;28;20522;-76
2023/01/25 09:01:09;;;;;;;8.95;5.38;;;;;;;;;;4974955;28;20014;-78
2023/01/25 09:03:36;;;;;;;7.65;5.53;;;;;;;;;;4977535;28;20034;-76
2023/01/25 09:06:02;;;;;;;16.77;6.30;;;;;;;;;;4977785;28;20054;-77
2023/01/25 09:08:29;;;;;;;8.32;4.35;;;;;;;;;;4978939;28;20024;-77
2023/01/25 09:10:55;;;;;;;6.35;4.60;;;;;;;;;;4976274;28;20023;-77
2023/01/25 09:13:21;;;;;;;7.43;4.95;;;;;;;;;;4978409;28;20046;-76
2023/01/25 09:15:47;;;;;;;9.65;5.03;;;;;;;;;;4978572;28;20360;-77
2023/01/25 09:18:14;;;;;;;8.85;5.45;;;;;;;;;;4975644;28;20753;-77
2023/01/25 09:20:40;;;;;;;9.32;5.95;;;;;;;;;;4972307;28;20657;-79
2023/01/25 09:23:06;;;;;;;8.85;5.80;;;;;;;;;;4977087;28;20409;-78
2023/01/25 09:25:34;;;;;;;7.47;5.32;;;;;;;;;;4977329;28;20383;-75
2023/01/25 09:28:01;;;;;;;8.23;5.20;;;;;;;;;;4973715;28;20030;-78
2023/01/25 09:30:27;;;;;;;13.93;5.85;;;;;;;;;;4977274;28;20038;-77
2023/01/25 09:32:53;;;;;;;8.23;5.47;;;;;;;;;;4975584;28;20096;-78
2023/01/25 09:35:19;;;;;;;6.88;4.28;;;;;;;;;;4975090;28;20102;-78
2023/01/25 09:37:49;;;;;;;7.75;4.28;;;;;;;;;;4971738;28;20126;-77
2023/01/25 09:40:20;;;;;;;5.25;3.40;;;;;;;;;;4978344;28;20019;-76
2023/01/25 09:42:54;;;;;;;5.60;3.15;;;;;;;;;;4972222;28;20022;-76
2023/01/25 09:45:23;;;;;;;6.55;2.92;;;;;;;;;;4974926;28;20080;-76
2023/01/25 09:47:59;;;;;;;3.90;2.38;;;;;;;;;;4974937;28;20551;-77
2023/01/25 09:50:44;;;;;;;3.45;2.35;;;;;;;;;;4979268;28;20101;-77
2023/01/25 09:53:23;;;;;;;3.92;2.60;;;;;;;;;;4978089;28;20096;-77
2023/01/25 09:55:54;;;;;;;7.93;2.80;;;;;;;;;;4976403;28;20481;-72
2023/01/25 09:58:46;;;;;;;5.70;2.95;;;;;;;;;;4975485;28;20049;-73
2023/01/25 10:01:19;;;;;;;5.88;3.30;;;;;;;;;;4970486;28;20034;-74
2023/01/25 10:03:53;;;;;;;5.80;3.58;;;;;;;;;;4973309;28;20022;-74
2023/01/25 10:06:22;;;;;;;4.22;3.03;;;;;;;;;;4972593;28;20038;-73
2023/01/25 10:08:51;;;;;;;4.20;3.33;;;;;;;;;;4974441;28;20032;-74
2023/01/25 10:11:33;;;;;;;6.30;4.00;;;;;;;;;;4974169;28;20097;-74
2023/01/25 10:13:59;;;;;;;5.63;3.40;;;;;;;;;;4973172;28;20624;-75
2023/01/25 10:16:31;;;;;;;9.38;4.47;;;;;;;;;;4974360;28;20022;-73
2023/01/25 10:18:57;;;;;;;9.15;2.72;;;;;;;;;;4977951;28;20062;-74
2023/01/25 10:21:29;;;;;;;5.65;3.03;;;;;;;;;;4974903;28;20102;-74
2023/01/25 10:24:07;;;;;;;5.57;2.90;;;;;;;;;;4974260;28;20053;-74
2023/01/25 10:26:34;;;;;;;42.53;26.17;;;;;;;;;;4974934;28;20023;-74
2023/01/25 10:29:10;;;;;;;29.85;18.83;;;;;;;;;;4974540;28;20551;-75
2023/01/25 10:31:45;;;;;;;48.83;33.03;;;;;;;;;;4972127;28;20019;-73
2023/01/25 10:34:19;;;;;;;29.33;19.75;;;;;;;;;;4976740;28;21442;-73
2023/01/25 10:36:55;;;;;;;12.55;8.52;;;;;;;;;;4969001;28;20023;-76
2023/01/25 10:39:22;;;;;;;6.20;3.30;;;;;;;;;;4976181;28;20023;-73
2023/01/25 10:41:54;;;;;;;4.05;2.53;;;;;;;;;;4976533;28;20036;-71
2023/01/25 10:44:21;;;;;;;4.55;3.00;;;;;;;;;;4976545;28;20113;-73
2023/01/25 10:47:07;;;;;;;5.05;2.00;;;;;;;;;;4971936;28;20018;-74
2023/01/25 10:49:36;;;;;;;2.78;1.45;;;;;;;;;;4966956;28;20069;-74
2023/01/25 10:52:13;;;;;;;34.03;5.03;;;;;;;;;;4971130;28;20022;-74
2023/01/25 10:54:39;;;;;;;89.07;13.68;;;;;;;;;;4974669;28;20030;-73
2023/01/25 10:57:09;;;;;;;88.00;10.00;;;;;;;;;;4975641;28;20121;-78
2023/01/25 10:59:36;;;;;;;23.88;3.40;;;;;;;;;;4972428;28;20619;-74
2023/01/25 11:02:36;;;;;;;6.90;2.10;;;;;;;;;;4972704;28;20030;-73
2023/01/25 11:05:20;;;;;;;4.47;2.00;;;;;;;;;;4975240;28;20564;-74
2023/01/25 11:07:46;;;;;;;5.50;1.70;;;;;;;;;;4974612;28;20030;-74
2023/01/25 11:10:31;;;;;;;2.17;1.35;;;;;;;;;;4978729;28;20027;-73
2023/01/25 11:13:16;;;;;;;3.50;1.50;;;;;;;;;;4977646;28;20054;-73
2023/01/25 11:15:45;;;;;;;2.92;1.48;;;;;;;;;;4973375;28;20057;-73
2023/01/25 11:18:13;;;;;;;2.67;1.77;;;;;;;;;;4978317;28;20127;-74
2023/01/25 11:20:39;;;;;;;5.57;3.33;;;;;;;;;;4975550;28;20025;-74
2023/01/25 11:23:19;;;;;;;4.10;1.88;;;;;;;;;;4980936;28;20030;-74
2023/01/25 11:25:45;;;;;;;3.05;1.92;;;;;;;;;;4978630;28;20022;-73
2023/01/25 11:28:17;;;;;;;2.60;1.80;;;;;;;;;;4977711;28;20036;-73
2023/01/25 11:30:43;;;;;;;3.13;1.70;;;;;;;;;;4977520;28;20106;-74
2023/01/25 11:33:13;;;;;;;4.68;2.83;;;;;;;;;;4973568;28;20018;-73
2023/01/25 11:35:58;;;;;;;5.55;3.15;;;;;;;;;;4979781;28;20033;-74
2023/01/25 11:38:24;;;;;;;5.80;3.90;;;;;;;;;;4976272;28;20046;-73
2023/01/25 11:40:58;;;;;;;5.45;3.08;;;;;;;;;;4975345;28;20374;-73
2023/01/25 11:43:40;;;;;;;3.15;2.50;;;;;;;;;;4978754;28;20026;-73
2023/01/25 11:46:21;;;;;;;4.13;2.65;;;;;;;;;;4973447;28;20089;-73
2023/01/25 11:49:02;;;;;;;3.83;1.95;;;;;;;;;;4979222;28;20052;-73
2023/01/25 11:51:33;;;;;;;4.05;2.28;;;;;;;;;;4980722;28;20065;-73
2023/01/25 11:54:18;;;;;;;3.03;1.55;;;;;;;;;;4976018;28;20030;-74
2023/01/25 11:56:58;;;;;;;3.97;2.05;;;;;;;;;;4976338;28;20517;-74
2023/01/25 11:59:37;;;;;;;2.53;1.65;;;;;;;;;;4971731;28;20038;-74
2023/01/25 12:02:18;;;;;;;4.68;2.58;;;;;;;;;;4977295;28;20022;-74
2023/01/25 12:05:03;;;;;;;3.25;2.10;;;;;;;;;;4973084;28;20039;-73
2023/01/25 12:07:39;;;;;;;4.45;2.78;;;;;;;;;;4972300;28;20403;-74
2023/01/25 12:10:20;;;;;;;5.28;2.28;;;;;;;;;;4976769;28;20109;-74
2023/01/25 12:12:49;;;;;;;3.22;2.25;;;;;;;;;;4976068;28;20023;-73
2023/01/25 12:15:22;;;;;;;4.60;2.30;;;;;;;;;;4969932;28;20763;-73
2023/01/25 12:18:11;;;;;;;5.93;2.40;;;;;;;;;;4974859;28;20850;-74
2023/01/25 12:20:44;;;;;;;5.05;2.55;;;;;;;;;;4968578;28;20078;-74
2023/01/25 12:23:16;;;;;;;3.88;1.95;;;;;;;;;;4977804;28;20034;-73
2023/01/25 12:25:42;;;;;;;4.65;1.98;;;;;;;;;;4978009;28;20654;-73
2023/01/25 12:28:15;;;;;;;3.65;1.95;;;;;;;;;;4978628;28;20050;-73
2023/01/25 12:30:50;;;;;;;2.22;1.70;;;;;;;;;;4972107;28;20025;-77
2023/01/25 12:33:28;;;;;;;4.53;2.10;;;;;;;;;;4974769;28;20444;-76
2023/01/25 12:35:54;;;;;;;4.40;1.90;;;;;;;;;;4975983;28;20389;-75
2023/01/25 12:38:27;;;;;;;6.60;1.98;;;;;;;;;;4976294;28;20118;-75
2023/01/25 12:40:56;;;;;;;2.65;1.50;;;;;;;;;;4975350;28;20222;-75
2023/01/25 12:43:29;;;;;;;4.25;2.13;;;;;;;;;;4979383;28;20110;-75
2023/01/25 12:45:57;;;;;;;3.85;2.13;;;;;;;;;;4973703;28;20553;-74
2023/01/25 12:48:33;;;;;;;2.03;1.40;;;;;;;;;;4971107;28;20038;-75
2023/01/25 12:51:00;;;;;;;8.40;2.03;;;;;;;;;;4979709;28;20022;-74
2023/01/25 12:53:33;;;;;;;3.00;2.00;;;;;;;;;;4974134;28;20429;-74
2023/01/25 12:55:59;;;;;;;4.07;2.20;;;;;;;;;;4976311;28;20030;-75
2023/01/25 12:58:35;;;;;;;4.50;2.00;;;;;;;;;;4978347;28;20129;-74
2023/01/25 13:01:16;;;;;;;2.90;2.00;;;;;;;;;;4973773;28;20058;-75
2023/01/25 13:03:58;;;;;;;5.57;2.45;;;;;;;;;;4977179;28;20026;-74
2023/01/25 13:06:39;;;;;;;4.10;2.28;;;;;;;;;;4975735;28;20058;-75
2023/01/25 13:09:05;;;;;;;4.45;2.20;;;;;;;;;;4971446;28;20033;-75
2023/01/25 13:11:33;;;;;;;4.72;2.15;;;;;;;;;;4978464;28;20105;-74
2023/01/25 13:14:20;;;;;;;3.17;2.00;;;;;;;;;;4979215;28;20021;-75
2023/01/25 13:16:47;;;;;;;5.97;2.50;;;;;;;;;;4976452;28;20030;-75
2023/01/25 13:19:21;;;;;;;5.43;2.28;;;;;;;;;;4976111;28;20030;-76
2023/01/25 13:21:49;;;;;;;3.67;2.15;;;;;;;;;;4976989;28;20034;-75
2023/01/25 13:24:23;;;;;;;7.32;3.13;;;;;;;;;;4974466;28;20048;-75
2023/01/25 13:26:53;;;;;;;5.97;3.55;;;;;;;;;;4970332;28;20487;-76
2023/01/25 13:29:34;;;;;;;5.82;3.30;;;;;;;;;;4974891;28;20038;-75
2023/01/25 13:32:01;;;;;;;6.30;3.25;;;;;;;;;;4971345;28;20058;-74
2023/01/25 13:34:39;;;;;;;5.50;3.28;;;;;;;;;;4974967;28;20054;-75
2023/01/25 13:37:22;;;;;;;5.28;3.83;;;;;;;;;;4969602;28;20038;-74
2023/01/25 13:39:48;;;;;;;4.65;3.45;;;;;;;;;;4975063;28;20030;-75
2023/01/25 13:42:28;;;;;;;7.88;4.90;;;;;;;;;;4975217;28;20026;-74
2023/01/25 13:44:56;;;;;;;12.82;5.75;;;;;;;;;;4973903;28;20109;-72
2023/01/25 13:47:25;;;;;;;15.23;4.63;;;;;;;;;;4974410;28;20054;-72
2023/01/25 13:50:00;;;;;;;6.85;2.90;;;;;;;;;;4970829;28;20030;-76
2023/01/25 13:52:27;;;;;;;5.95;3.28;;;;;;;;;;4975732;28;20184;-75
2023/01/25 13:54:57;;;;;;;6.32;3.95;;;;;;;;;;4974471;28;20098;-74
2023/01/25 13:57:27;;;;;;;6.05;3.30;;;;;;;;;;4974228;28;20038;-76
2023/01/25 14:00:01;;;;;;;6.30;3.47;;;;;;;;;;4972543;28;20026;-75
2023/01/25 14:02:27;;;;;;;3.47;2.78;;;;;;;;;;4969973;28;20031;-76
2023/01/25 14:04:54;;;;;;;4.65;3.20;;;;;;;;;;4976029;28;20042;-75
2023/01/25 14:07:29;;;;;;;6.85;2.67;;;;;;;;;;4974586;28;20046;-75
2023/01/25 14:09:56;;;;;;;4.60;2.70;;;;;;;;;;4969777;28;20113;-76
2023/01/25 14:12:25;;;;;;;5.30;3.65;;;;;;;;;;4970899;28;20664;-75
2023/01/25 14:14:51;;;;;;;5.55;2.72;;;;;;;;;;4973968;28;20109;-74
2023/01/25 14:17:19;;;;;;;3.33;2.20;;;;;;;;;;4973722;28;20134;-75
2023/01/25 14:19:55;;;;;;;5.38;2.13;;;;;;;;;;4972576;28;20037;-75
2023/01/25 14:22:25;;;;;;;8.25;2.00;;;;;;;;;;4972444;28;20097;-74
2023/01/25 14:25:06;;;;;;;3.70;1.88;;;;;;;;;;4975084;28;20034;-74
2023/01/25 14:27:36;;;;;;;4.97;2.08;;;;;;;;;;4970116;28;20025;-74
2023/01/25 14:30:03;;;;;;;5.22;2.45;;;;;;;;;;4974866;28;20026;-75
2023/01/25 14:32:30;;;;;;;3.88;1.85;;;;;;;;;;4972095;28;20105;-74
2023/01/25 14:34:56;;;;;;;3.42;1.80;;;;;;;;;;4969820;28;20553;-75
2023/01/25 14:37:22;;;;;;;6.43;1.95;;;;;;;;;;4971117;28;20455;-74
2023/01/25 14:39:49;;;;;;;4.93;1.98;;;;;;;;;;4972943;28;20060;-76
2023/01/25 14:42:16;;;;;;;2.50;1.63;;;;;;;;;;4975345;28;20041;-76
2023/01/25 14:44:43;;;;;;;5.72;2.33;;;;;;;;;;4976675;28;20083;-74
2023/01/25 14:47:21;;;;;;;4.82;2.00;;;;;;;;;;4978881;28;20592;-75
2023/01/25 14:49:47;;;;;;;4.35;2.20;;;;;;;;;;4974737;28;20042;-75
2023/01/25 14:52:16;;;;;;;3.67;2.13;;;;;;;;;;4978719;28;20093;-75
2023/01/25 14:54:49;;;;;;;4.38;2.10;;;;;;;;;;4975459;28;20029;-77